Time;durP1;ratioP1;P1;durP2;ratioP2;P2;SDS_P1;SDS_P2;PMS_P1;PMS_P2;Temp;Humidity;BMP_temperature;BMP_pressure;BME280_temperature;BME280_humidity;BME280_pressure;Samples;Min_cycle;Max_cycle;Signal;HPM_P1;HPM_P2
2022/02/16 00:02:08;;;;;;;0.60;0.50;;;;;;;;;;5053684;28;20432;-72
2022/02/16 00:04:35;;;;;;;0.60;0.50;;;;;;;;;;5066553;28;20567;-72
2022/02/16 00:07:02;;;;;;;0.60;0.60;;;;;;;;;;5073905;28;20466;-70
2022/02/16 00:09:29;;;;;;;0.60;0.50;;;;;;;;;;5071384;28;20533;-72
2022/02/16 00:11:57;;;;;;;0.60;0.60;;;;;;;;;;5055233;28;20447;-70
2022/02/16 00:14:23;;;;;;;0.60;0.57;;;;;;;;;;5073195;28;20441;-71
2022/02/16 00:16:51;;;;;;;0.60;0.50;;;;;;;;;;5071401;28;20437;-69
2022/02/16 00:19:18;;;;;;;0.60;0.50;;;;;;;;;;5059877;28;20468;-72
2022/02/16 00:21:44;;;;;;;0.60;0.50;;;;;;;;;;5053423;28;20462;-71
2022/02/16 00:24:11;;;;;;;0.60;0.50;;;;;;;;;;5059544;28;20549;-72
2022/02/16 00:26:39;;;;;;;0.60;0.50;;;;;;;;;;5065579;28;20461;-70
2022/02/16 00:29:05;;;;;;;0.60;0.60;;;;;;;;;;5055272;28;20585;-69
2022/02/16 00:31:32;;;;;;;0.60;0.50;;;;;;;;;;5051995;28;20485;-72
2022/02/16 00:34:04;;;;;;;0.60;0.50;;;;;;;;;;5062478;28;20455;-69
2022/02/16 00:36:31;;;;;;;0.60;0.50;;;;;;;;;;5073030;28;20474;-69
2022/02/16 00:38:58;;;;;;;0.60;0.60;;;;;;;;;;5072029;28;20522;-72
2022/02/16 00:41:26;;;;;;;0.60;0.50;;;;;;;;;;5072173;28;20927;-70
2022/02/16 00:43:52;;;;;;;0.60;0.60;;;;;;;;;;5072281;28;20449;-70
2022/02/16 00:46:19;;;;;;;0.60;0.50;;;;;;;;;;5071748;28;20450;-69
2022/02/16 00:48:49;;;;;;;0.60;0.50;;;;;;;;;;5070013;28;20443;-72
2022/02/16 00:51:17;;;;;;;0.60;0.60;;;;;;;;;;5055618;28;21008;-70
2022/02/16 00:53:45;;;;;;;0.60;0.50;;;;;;;;;;5070112;28;20531;-69
2022/02/16 00:56:12;;;;;;;0.60;0.50;;;;;;;;;;5073612;28;20441;-71
2022/02/16 00:58:39;;;;;;;0.60;0.50;;;;;;;;;;5076467;28;20419;-70
2022/02/16 01:01:06;;;;;;;0.60;0.50;;;;;;;;;;5076507;28;20488;-71
2022/02/16 01:03:33;;;;;;;0.60;0.60;;;;;;;;;;5074124;28;20541;-73
2022/02/16 01:06:01;;;;;;;0.60;0.50;;;;;;;;;;5055840;28;20955;-72
2022/02/16 01:08:31;;;;;;;0.60;0.50;;;;;;;;;;5055584;28;20460;-70
2022/02/16 01:11:00;;;;;;;0.60;0.50;;;;;;;;;;5054544;28;20852;-71
2022/02/16 01:13:27;;;;;;;0.60;0.50;;;;;;;;;;5055611;28;20853;-70
2022/02/16 01:15:55;;;;;;;0.60;0.50;;;;;;;;;;5045179;28;20435;-69
2022/02/16 01:18:22;;;;;;;0.60;0.50;;;;;;;;;;5072950;28;20848;-70
2022/02/16 01:20:54;;;;;;;0.60;0.60;;;;;;;;;;5055491;28;20516;-70
2022/02/16 01:23:22;;;;;;;0.60;0.50;;;;;;;;;;5067948;28;20444;-72
2022/02/16 01:25:51;;;;;;;0.60;0.50;;;;;;;;;;5075221;28;20865;-70
2022/02/16 01:28:38;;;;;;;0.60;0.50;;;;;;;;;;5073314;28;20459;-70
2022/02/16 01:31:06;;;;;;;0.60;0.50;;;;;;;;;;5074150;28;20477;-68
2022/02/16 01:33:38;;;;;;;0.60;0.50;;;;;;;;;;5059018;28;20530;-70
2022/02/16 01:36:05;;;;;;;0.60;0.50;;;;;;;;;;5075045;28;20943;-70
2022/02/16 01:38:35;;;;;;;0.60;0.50;;;;;;;;;;5074194;28;20516;-69
2022/02/16 01:41:25;;;;;;;0.60;0.50;;;;;;;;;;5057860;28;20836;-71
2022/02/16 01:44:02;;;;;;;0.60;0.50;;;;;;;;;;5069786;28;21028;-71
2022/02/16 01:46:51;;;;;;;0.60;0.50;;;;;;;;;;5075898;28;20504;-70
2022/02/16 01:49:24;;;;;;;0.60;0.50;;;;;;;;;;5075776;28;20954;-70
2022/02/16 01:51:54;;;;;;;0.60;0.50;;;;;;;;;;5057844;28;20558;-71
2022/02/16 01:54:26;;;;;;;0.60;0.50;;;;;;;;;;5056965;28;20984;-71
2022/02/16 01:56:55;;;;;;;0.60;0.50;;;;;;;;;;5067879;28;20459;-70
2022/02/16 01:59:33;;;;;;;0.60;0.50;;;;;;;;;;5069352;28;20444;-72
2022/02/16 02:02:20;;;;;;;0.60;0.50;;;;;;;;;;5076238;28;20413;-69
2022/02/16 02:04:57;;;;;;;0.60;0.50;;;;;;;;;;5062741;28;20951;-70
2022/02/16 02:07:26;;;;;;;0.60;0.50;;;;;;;;;;5056170;28;20566;-72
2022/02/16 02:09:53;;;;;;;0.60;0.50;;;;;;;;;;5072892;28;20440;-71
2022/02/16 02:12:22;;;;;;;0.60;0.50;;;;;;;;;;5054453;28;20531;-71
2022/02/16 02:14:54;;;;;;;0.60;0.50;;;;;;;;;;5066909;28;20867;-69
2022/02/16 02:17:46;;;;;;;0.60;0.50;;;;;;;;;;5072140;28;20453;-76
2022/02/16 02:20:21;;;;;;;0.60;0.50;;;;;;;;;;5062177;28;20538;-70
2022/02/16 02:22:50;;;;;;;0.60;0.60;;;;;;;;;;5048949;28;20462;-70
2022/02/16 02:25:22;;;;;;;0.60;0.50;;;;;;;;;;5073790;28;20947;-70
2022/02/16 02:27:53;;;;;;;0.60;0.50;;;;;;;;;;5056466;28;20462;-70
2022/02/16 02:30:24;;;;;;;0.60;0.50;;;;;;;;;;5058022;28;20998;-70
2022/02/16 02:32:53;;;;;;;0.60;0.50;;;;;;;;;;5073366;28;20443;-71
2022/02/16 02:35:28;;;;;;;0.60;0.50;;;;;;;;;;5073227;28;20426;-71
2022/02/16 02:37:56;;;;;;;0.60;0.50;;;;;;;;;;5073348;28;20473;-70
2022/02/16 02:40:26;;;;;;;0.60;0.50;;;;;;;;;;5072970;28;20496;-69
2022/02/16 02:42:59;;;;;;;0.60;0.50;;;;;;;;;;5073537;28;21022;-71
2022/02/16 02:45:36;;;;;;;0.60;0.53;;;;;;;;;;5053877;28;20444;-71
2022/02/16 02:48:07;;;;;;;0.60;0.50;;;;;;;;;;5055991;28;20972;-71
2022/02/16 02:50:40;;;;;;;0.60;0.50;;;;;;;;;;5060608;28;20448;-71
2022/02/16 02:53:12;;;;;;;0.60;0.60;;;;;;;;;;5071621;28;20558;-74
2022/02/16 02:55:42;;;;;;;0.60;0.50;;;;;;;;;;5073715;28;20443;-71
2022/02/16 02:58:11;;;;;;;0.60;0.50;;;;;;;;;;5057626;28;20444;-71
2022/02/16 03:00:45;;;;;;;0.60;0.50;;;;;;;;;;5054050;28;20471;-71
2022/02/16 03:03:12;;;;;;;0.60;0.50;;;;;;;;;;5066115;28;20984;-71
2022/02/16 03:05:41;;;;;;;0.60;0.50;;;;;;;;;;5053191;28;20949;-71
2022/02/16 03:08:07;;;;;;;0.60;0.50;;;;;;;;;;5060176;28;21081;-69
2022/02/16 03:10:34;;;;;;;0.60;0.50;;;;;;;;;;5043260;28;20447;-71
2022/02/16 03:13:02;;;;;;;0.60;0.50;;;;;;;;;;5073244;28;20474;-72
2022/02/16 03:15:42;;;;;;;0.60;0.60;;;;;;;;;;5072983;28;20481;-70
2022/02/16 03:18:08;;;;;;;0.60;0.50;;;;;;;;;;5074627;28;20463;-72
2022/02/16 03:20:35;;;;;;;0.60;0.50;;;;;;;;;;5054494;28;20484;-73
2022/02/16 03:23:04;;;;;;;0.60;0.50;;;;;;;;;;5065758;28;20469;-72
2022/02/16 03:25:31;;;;;;;0.60;0.50;;;;;;;;;;5055093;28;20475;-71
2022/02/16 03:27:58;;;;;;;0.60;0.60;;;;;;;;;;5070544;28;20474;-72
2022/02/16 03:30:25;;;;;;;0.60;0.50;;;;;;;;;;5069365;28;20441;-72
2022/02/16 03:33:12;;;;;;;0.60;0.60;;;;;;;;;;5070274;28;20447;-72
2022/02/16 03:35:39;;;;;;;0.60;0.50;;;;;;;;;;5069363;28;20443;-73
2022/02/16 03:38:09;;;;;;;0.60;0.50;;;;;;;;;;5054389;28;20459;-72
2022/02/16 03:40:36;;;;;;;0.60;0.50;;;;;;;;;;5070434;28;20802;-70
2022/02/16 03:43:03;;;;;;;0.60;0.50;;;;;;;;;;5089321;28;20442;-72
2022/02/16 03:45:30;;;;;;;0.60;0.50;;;;;;;;;;5056303;28;20470;-73
2022/02/16 03:47:59;;;;;;;0.60;0.50;;;;;;;;;;5061263;28;20470;-70
2022/02/16 03:50:28;;;;;;;0.60;0.50;;;;;;;;;;5071273;28;20963;-71
2022/02/16 03:52:55;;;;;;;0.60;0.50;;;;;;;;;;5072470;28;20459;-70
2022/02/16 03:55:23;;;;;;;0.60;0.50;;;;;;;;;;5064492;28;20440;-73
2022/02/16 03:57:50;;;;;;;0.60;0.50;;;;;;;;;;5052590;28;20434;-72
2022/02/16 04:00:20;;;;;;;0.60;0.50;;;;;;;;;;5061306;28;20436;-71
2022/02/16 04:02:51;;;;;;;0.60;0.50;;;;;;;;;;5057676;28;20473;-70
2022/02/16 04:05:18;;;;;;;0.60;0.50;;;;;;;;;;5055521;28;20526;-73
2022/02/16 04:07:46;;;;;;;0.60;0.50;;;;;;;;;;5072038;28;21078;-71
2022/02/16 04:10:14;;;;;;;0.60;0.50;;;;;;;;;;5051496;28;20468;-71
2022/02/16 04:12:45;;;;;;;0.60;0.50;;;;;;;;;;5035695;28;20446;-71
2022/02/16 04:15:14;;;;;;;0.60;0.50;;;;;;;;;;5061064;28;20501;-71
2022/02/16 04:17:43;;;;;;;0.60;0.50;;;;;;;;;;5060229;28;20444;-73
2022/02/16 04:20:12;;;;;;;0.60;0.50;;;;;;;;;;5071059;28;20440;-71
2022/02/16 04:22:41;;;;;;;0.60;0.60;;;;;;;;;;5089247;28;20903;-72
2022/02/16 04:25:14;;;;;;;0.60;0.50;;;;;;;;;;5072116;28;20440;-73
2022/02/16 04:27:42;;;;;;;0.60;0.50;;;;;;;;;;5072092;28;20450;-71
2022/02/16 04:30:11;;;;;;;0.60;0.50;;;;;;;;;;5061931;28;20441;-73
2022/02/16 04:32:39;;;;;;;0.60;0.50;;;;;;;;;;5075102;28;20508;-72
2022/02/16 04:35:07;;;;;;;0.60;0.50;;;;;;;;;;5058411;28;20921;-71
2022/02/16 04:37:34;;;;;;;0.60;0.50;;;;;;;;;;5075485;28;20503;-71
2022/02/16 04:40:02;;;;;;;0.60;0.60;;;;;;;;;;5075048;28;20439;-73
2022/02/16 04:42:32;;;;;;;0.60;0.50;;;;;;;;;;5073857;28;20440;-72
2022/02/16 04:45:00;;;;;;;0.60;0.60;;;;;;;;;;5066897;28;20444;-72
2022/02/16 04:47:28;;;;;;;0.60;0.60;;;;;;;;;;5055433;28;20790;-71
2022/02/16 04:49:55;;;;;;;0.60;0.50;;;;;;;;;;5054983;28;20493;-73
2022/02/16 04:52:22;;;;;;;0.60;0.50;;;;;;;;;;5056840;28;20473;-73
2022/02/16 04:54:49;;;;;;;0.60;0.50;;;;;;;;;;5064614;28;20802;-73
2022/02/16 04:57:17;;;;;;;0.60;0.50;;;;;;;;;;5062498;28;20437;-74
2022/02/16 04:59:51;;;;;;;0.60;0.50;;;;;;;;;;5075679;28;20485;-72
2022/02/16 05:02:18;;;;;;;0.60;0.50;;;;;;;;;;5076081;28;20959;-72
2022/02/16 05:04:47;;;;;;;0.60;0.50;;;;;;;;;;5074579;28;20433;-72
2022/02/16 05:07:15;;;;;;;0.60;0.50;;;;;;;;;;5074449;28;20514;-73
2022/02/16 05:09:43;;;;;;;0.60;0.50;;;;;;;;;;5063543;28;20801;-73
2022/02/16 05:12:10;;;;;;;0.60;0.50;;;;;;;;;;5058420;28;20426;-72
2022/02/16 05:14:39;;;;;;;0.60;0.50;;;;;;;;;;5074944;28;20439;-70
2022/02/16 05:17:06;;;;;;;0.60;0.50;;;;;;;;;;5076171;28;20492;-73
2022/02/16 05:19:39;;;;;;;0.60;0.50;;;;;;;;;;5057681;28;20435;-72
2022/02/16 05:22:08;;;;;;;0.60;0.50;;;;;;;;;;5055895;28;20823;-73
2022/02/16 05:24:41;;;;;;;0.60;0.50;;;;;;;;;;5055355;28;20510;-73
2022/02/16 05:27:09;;;;;;;0.60;0.50;;;;;;;;;;5059166;28;20444;-71
2022/02/16 05:29:35;;;;;;;0.60;0.60;;;;;;;;;;5055930;28;20490;-74
2022/02/16 05:32:08;;;;;;;0.60;0.50;;;;;;;;;;5063059;28;20451;-71
2022/02/16 05:34:34;;;;;;;0.60;0.50;;;;;;;;;;5069475;28;20433;-72
2022/02/16 05:37:01;;;;;;;0.60;0.50;;;;;;;;;;5059283;28;20463;-72
2022/02/16 05:39:30;;;;;;;0.60;0.50;;;;;;;;;;5071736;28;20442;-73
2022/02/16 05:41:59;;;;;;;0.60;0.50;;;;;;;;;;5072566;28;20443;-71
2022/02/16 05:44:27;;;;;;;0.60;0.50;;;;;;;;;;5070304;28;20546;-72
2022/02/16 05:46:55;;;;;;;0.60;0.50;;;;;;;;;;5037598;28;20437;-73
2022/02/16 05:49:22;;;;;;;0.60;0.50;;;;;;;;;;5054012;28;21002;-75
2022/02/16 05:51:49;;;;;;;0.60;0.50;;;;;;;;;;5052398;28;20460;-74
2022/02/16 05:54:15;;;;;;;0.60;0.50;;;;;;;;;;5053794;28;20420;-73
2022/02/16 05:56:43;;;;;;;0.60;0.50;;;;;;;;;;5052337;28;20443;-73
2022/02/16 05:59:15;;;;;;;0.60;0.50;;;;;;;;;;5061225;28;20435;-74
2022/02/16 06:01:41;;;;;;;0.60;0.60;;;;;;;;;;5072599;28;20462;-73
2022/02/16 06:04:12;;;;;;;0.63;0.60;;;;;;;;;;5074137;28;20429;-72
2022/02/16 06:06:39;;;;;;;0.60;0.50;;;;;;;;;;5073836;28;20463;-72
2022/02/16 06:09:08;;;;;;;0.60;0.50;;;;;;;;;;5066845;28;20845;-73
2022/02/16 06:11:36;;;;;;;0.60;0.50;;;;;;;;;;5063759;28;20793;-71
2022/02/16 06:14:11;;;;;;;0.60;0.53;;;;;;;;;;5061267;28;20974;-74
2022/02/16 06:16:43;;;;;;;0.60;0.50;;;;;;;;;;5053774;28;20542;-72
2022/02/16 06:19:10;;;;;;;0.60;0.60;;;;;;;;;;5053762;28;20439;-74
2022/02/16 06:21:37;;;;;;;0.60;0.50;;;;;;;;;;5053140;28;20463;-74
2022/02/16 06:24:06;;;;;;;0.60;0.50;;;;;;;;;;5053653;28;20966;-73
2022/02/16 06:26:33;;;;;;;0.60;0.50;;;;;;;;;;5053399;28;20437;-71
2022/02/16 06:29:01;;;;;;;0.60;0.50;;;;;;;;;;5062980;28;20470;-73
2022/02/16 06:31:40;;;;;;;0.60;0.50;;;;;;;;;;5072229;28;20990;-73
2022/02/16 06:34:09;;;;;;;0.60;0.60;;;;;;;;;;5072749;28;20544;-72
2022/02/16 06:36:35;;;;;;;0.60;0.60;;;;;;;;;;5072461;28;20462;-72
2022/02/16 06:39:03;;;;;;;0.60;0.60;;;;;;;;;;5072523;28;20441;-72
2022/02/16 06:41:32;;;;;;;0.60;0.60;;;;;;;;;;5073422;28;20427;-72
2022/02/16 06:43:59;;;;;;;0.60;0.50;;;;;;;;;;5073110;28;20439;-72
2022/02/16 06:46:26;;;;;;;0.60;0.50;;;;;;;;;;5072684;28;20449;-73
2022/02/16 06:48:55;;;;;;;0.60;0.60;;;;;;;;;;5059740;28;20466;-72
2022/02/16 06:51:22;;;;;;;0.60;0.60;;;;;;;;;;5093102;28;20462;-72
2022/02/16 06:53:55;;;;;;;0.60;0.50;;;;;;;;;;5092897;28;20438;-72
2022/02/16 06:56:23;;;;;;;0.60;0.60;;;;;;;;;;5076616;28;20429;-72
2022/02/16 06:59:25;;;;;;;0.60;0.57;;;;;;;;;;5063119;28;20443;-71
2022/02/16 07:01:56;;;;;;;0.60;0.50;;;;;;;;;;5052990;28;20439;-71
2022/02/16 07:04:25;;;;;;;0.60;0.57;;;;;;;;;;5052425;28;20445;-72
2022/02/16 07:06:52;;;;;;;0.60;0.50;;;;;;;;;;5056000;28;20465;-74
2022/02/16 07:09:23;;;;;;;0.60;0.50;;;;;;;;;;5055712;28;20470;-71
2022/02/16 07:11:52;;;;;;;0.60;0.50;;;;;;;;;;5072704;28;20496;-72
2022/02/16 07:14:19;;;;;;;0.60;0.50;;;;;;;;;;5072769;28;20438;-71
2022/02/16 07:16:47;;;;;;;0.60;0.50;;;;;;;;;;5072131;28;20439;-72
2022/02/16 07:19:16;;;;;;;0.60;0.50;;;;;;;;;;5063882;28;20442;-72
2022/02/16 07:21:57;;;;;;;0.60;0.60;;;;;;;;;;5057072;28;20464;-70
2022/02/16 07:24:24;;;;;;;0.60;0.50;;;;;;;;;;5072220;28;20450;-72
2022/02/16 07:26:51;;;;;;;0.60;0.50;;;;;;;;;;5055644;28;20445;-71
2022/02/16 07:29:18;;;;;;;0.60;0.50;;;;;;;;;;5051858;28;21033;-73
2022/02/16 07:31:45;;;;;;;0.60;0.50;;;;;;;;;;5035464;28;20492;-70
2022/02/16 07:34:12;;;;;;;0.60;0.50;;;;;;;;;;5053272;28;20521;-72
2022/02/16 07:36:40;;;;;;;0.60;0.60;;;;;;;;;;5053430;28;20986;-72
2022/02/16 07:39:08;;;;;;;0.60;0.50;;;;;;;;;;5071783;28;20444;-74
2022/02/16 07:41:35;;;;;;;0.60;0.50;;;;;;;;;;5055215;28;20436;-73
2022/02/16 07:44:23;;;;;;;0.60;0.50;;;;;;;;;;5055518;28;20919;-71
2022/02/16 07:46:58;;;;;;;0.60;0.60;;;;;;;;;;5053556;28;20451;-74
2022/02/16 07:49:26;;;;;;;0.60;0.60;;;;;;;;;;5043552;28;20475;-71
2022/02/16 07:52:11;;;;;;;0.60;0.50;;;;;;;;;;5073065;28;20445;-73
2022/02/16 07:55:09;;;;;;;0.60;0.50;;;;;;;;;;5072711;28;20820;-71
2022/02/16 07:57:37;;;;;;;0.60;0.50;;;;;;;;;;5072462;28;20534;-72
2022/02/16 08:00:06;;;;;;;0.60;0.53;;;;;;;;;;5051838;28;20431;-72
2022/02/16 08:02:58;;;;;;;0.60;0.50;;;;;;;;;;5065334;28;20467;-73
2022/02/16 08:05:25;;;;;;;0.60;0.60;;;;;;;;;;5065441;28;20437;-72
2022/02/16 08:07:54;;;;;;;0.60;0.50;;;;;;;;;;5069415;28;20511;-72
2022/02/16 08:10:22;;;;;;;0.60;0.50;;;;;;;;;;5071748;28;20458;-71
2022/02/16 08:12:56;;;;;;;0.60;0.50;;;;;;;;;;5059182;28;20442;-74
2022/02/16 08:15:27;;;;;;;0.60;0.50;;;;;;;;;;5076288;28;20445;-74
2022/02/16 08:17:55;;;;;;;0.60;0.50;;;;;;;;;;5075433;28;20470;-72
2022/02/16 08:20:22;;;;;;;0.60;0.60;;;;;;;;;;5075107;28;20434;-72
2022/02/16 08:23:10;;;;;;;0.60;0.50;;;;;;;;;;5075981;28;21060;-72
2022/02/16 08:25:38;;;;;;;0.60;0.50;;;;;;;;;;5075741;28;20465;-72
2022/02/16 08:28:11;;;;;;;0.60;0.50;;;;;;;;;;5075452;28;20787;-75
2022/02/16 08:30:38;;;;;;;0.60;0.50;;;;;;;;;;5055685;28;20471;-72
2022/02/16 08:33:11;;;;;;;0.60;0.50;;;;;;;;;;5055844;28;20445;-71
2022/02/16 08:35:48;;;;;;;0.60;0.50;;;;;;;;;;5055930;28;20447;-70
2022/02/16 08:38:14;;;;;;;0.60;0.60;;;;;;;;;;5070989;28;20451;-72
2022/02/16 08:40:42;;;;;;;0.60;0.50;;;;;;;;;;5057232;28;20404;-69
2022/02/16 08:43:27;;;;;;;0.60;0.60;;;;;;;;;;5057566;28;20417;-70
2022/02/16 08:45:54;;;;;;;0.60;0.50;;;;;;;;;;5055285;28;20519;-71
2022/02/16 08:48:23;;;;;;;0.60;0.50;;;;;;;;;;5057088;28;20957;-72
2022/02/16 08:50:50;;;;;;;0.60;0.60;;;;;;;;;;5069227;28;20979;-73
2022/02/16 08:53:17;;;;;;;0.60;0.50;;;;;;;;;;5057020;28;20451;-74
2022/02/16 08:55:46;;;;;;;0.60;0.50;;;;;;;;;;5056358;28;20444;-71
2022/02/16 08:58:12;;;;;;;0.60;0.50;;;;;;;;;;5055542;28;20442;-71
2022/02/16 09:00:42;;;;;;;0.60;0.50;;;;;;;;;;5060512;28;20435;-72
2022/02/16 09:03:09;;;;;;;0.60;0.60;;;;;;;;;;5071952;28;20442;-73
2022/02/16 09:05:36;;;;;;;0.60;0.50;;;;;;;;;;5075077;28;20431;-71
2022/02/16 09:08:03;;;;;;;0.60;0.57;;;;;;;;;;5058426;28;20490;-72
2022/02/16 09:10:30;;;;;;;0.60;0.60;;;;;;;;;;5074901;28;20465;-74
2022/02/16 09:12:58;;;;;;;0.60;0.50;;;;;;;;;;5076608;28;20476;-71
2022/02/16 09:15:26;;;;;;;0.60;0.50;;;;;;;;;;5062315;28;20466;-72
2022/02/16 09:17:54;;;;;;;0.60;0.50;;;;;;;;;;5054638;28;20527;-71
2022/02/16 09:20:21;;;;;;;0.60;0.50;;;;;;;;;;5071169;28;20492;-72
2022/02/16 09:22:48;;;;;;;0.60;0.60;;;;;;;;;;5076012;28;20447;-72
2022/02/16 09:25:19;;;;;;;0.60;0.60;;;;;;;;;;5076163;28;20415;-72
2022/02/16 09:27:47;;;;;;;0.60;0.60;;;;;;;;;;5076139;28;20486;-72
2022/02/16 09:30:15;;;;;;;0.60;0.50;;;;;;;;;;5073742;28;20520;-73
2022/02/16 09:32:42;;;;;;;0.60;0.60;;;;;;;;;;5074069;28;20476;-74
2022/02/16 09:35:09;;;;;;;0.60;0.50;;;;;;;;;;5074812;28;20481;-72
2022/02/16 09:37:36;;;;;;;0.60;0.50;;;;;;;;;;5075572;28;21071;-72
2022/02/16 09:40:04;;;;;;;0.70;0.70;;;;;;;;;;5068049;28;20460;-71
2022/02/16 09:42:32;;;;;;;0.60;0.57;;;;;;;;;;5055579;28;20429;-73
2022/02/16 09:45:03;;;;;;;0.60;0.60;;;;;;;;;;5054446;28;20435;-71
2022/02/16 09:47:32;;;;;;;0.60;0.57;;;;;;;;;;5072670;28;20443;-73
2022/02/16 09:49:59;;;;;;;0.60;0.60;;;;;;;;;;5071904;28;20501;-72
2022/02/16 09:52:27;;;;;;;0.60;0.60;;;;;;;;;;5074413;28;20457;-71
2022/02/16 09:54:55;;;;;;;0.60;0.60;;;;;;;;;;5074277;28;20528;-73
2022/02/16 09:57:21;;;;;;;0.60;0.60;;;;;;;;;;5075626;28;20509;-72
2022/02/16 09:59:54;;;;;;;0.60;0.60;;;;;;;;;;5067632;28;20431;-72
2022/02/16 10:02:22;;;;;;;0.60;0.60;;;;;;;;;;5064015;28;20506;-74
2022/02/16 10:04:54;;;;;;;0.60;0.60;;;;;;;;;;5058763;28;20521;-71
2022/02/16 10:07:22;;;;;;;0.60;0.60;;;;;;;;;;5061212;28;21046;-76
2022/02/16 10:09:50;;;;;;;0.60;0.60;;;;;;;;;;5074470;28;20512;-74
2022/02/16 10:12:17;;;;;;;0.60;0.60;;;;;;;;;;5072375;28;20444;-74
2022/02/16 10:14:45;;;;;;;0.60;0.60;;;;;;;;;;5057379;28;20510;-74
2022/02/16 10:17:16;;;;;;;0.60;0.50;;;;;;;;;;5074221;28;20446;-73
2022/02/16 10:19:50;;;;;;;0.60;0.60;;;;;;;;;;5074985;28;20914;-73
2022/02/16 10:22:19;;;;;;;0.60;0.60;;;;;;;;;;5075082;28;20447;-76
2022/02/16 10:24:46;;;;;;;0.60;0.60;;;;;;;;;;5073430;28;20432;-73
2022/02/16 10:27:16;;;;;;;0.60;0.60;;;;;;;;;;5053383;28;20473;-72
2022/02/16 10:29:44;;;;;;;0.60;0.60;;;;;;;;;;5053338;28;20479;-74
2022/02/16 10:32:25;;;;;;;0.60;0.60;;;;;;;;;;5037135;28;20433;-74
2022/02/16 10:34:53;;;;;;;0.70;0.70;;;;;;;;;;5053718;28;20536;-73
2022/02/16 10:37:27;;;;;;;0.63;0.60;;;;;;;;;;5061329;28;20516;-74
2022/02/16 10:39:58;;;;;;;0.60;0.60;;;;;;;;;;5073124;28;20460;-74
2022/02/16 10:42:24;;;;;;;0.80;0.80;;;;;;;;;;5063417;28;20461;-74
2022/02/16 10:45:03;;;;;;;0.70;0.63;;;;;;;;;;5055173;28;20887;-73
2022/02/16 10:47:49;;;;;;;0.70;0.70;;;;;;;;;;5052921;28;20842;-74
2022/02/16 10:50:25;;;;;;;0.70;0.60;;;;;;;;;;5111658;27;20632;-74
2022/02/16 10:52:53;;;;;;;0.70;0.60;;;;;;;;;;5111341;28;20449;-73
2022/02/16 10:55:34;;;;;;;0.70;0.70;;;;;;;;;;5111087;28;20440;-72
2022/02/16 10:58:02;;;;;;;0.70;0.60;;;;;;;;;;5102783;28;20851;-75
2022/02/16 11:00:31;;;;;;;0.70;0.60;;;;;;;;;;5089500;28;20926;-74
2022/02/16 11:02:59;;;;;;;0.80;0.80;;;;;;;;;;5073226;28;20533;-75
2022/02/16 11:05:29;;;;;;;0.70;0.60;;;;;;;;;;5089438;28;20441;-75
2022/02/16 11:07:56;;;;;;;0.70;0.60;;;;;;;;;;5089401;28;20493;-76
2022/02/16 11:10:23;;;;;;;0.70;0.60;;;;;;;;;;5089609;28;20836;-76
2022/02/16 11:12:50;;;;;;;0.70;0.60;;;;;;;;;;5089241;28;20460;-73
2022/02/16 11:15:19;;;;;;;0.70;0.70;;;;;;;;;;5090689;28;20437;-73
2022/02/16 11:17:47;;;;;;;0.70;0.60;;;;;;;;;;5089595;28;20485;-73
2022/02/16 11:20:18;;;;;;;0.70;0.60;;;;;;;;;;5089249;28;20980;-73
2022/02/16 11:22:51;;;;;;;0.70;0.70;;;;;;;;;;5089086;28;20453;-75
2022/02/16 11:25:31;;;;;;;0.70;0.60;;;;;;;;;;5091321;28;20891;-76
2022/02/16 11:28:00;;;;;;;0.70;0.60;;;;;;;;;;5088987;28;20435;-77
2022/02/16 11:30:31;;;;;;;0.70;0.60;;;;;;;;;;5072669;28;20554;-74
2022/02/16 11:33:13;;;;;;;0.70;0.70;;;;;;;;;;5090714;28;20511;-76
2022/02/16 11:35:45;;;;;;;0.70;0.70;;;;;;;;;;5083977;28;20528;-73
2022/02/16 11:38:15;;;;;;;0.70;0.60;;;;;;;;;;5075003;28;20513;-75
2022/02/16 11:40:44;;;;;;;0.70;0.60;;;;;;;;;;5070747;28;20503;-77
2022/02/16 11:43:12;;;;;;;0.70;0.60;;;;;;;;;;5083427;28;20483;-74
2022/02/16 11:45:50;;;;;;;0.70;0.70;;;;;;;;;;5089469;28;20804;-73
2022/02/16 11:48:38;;;;;;;0.70;0.60;;;;;;;;;;5088938;28;20841;-73
2022/02/16 11:51:28;;;;;;;0.70;0.70;;;;;;;;;;5049141;28;20432;-74
2022/02/16 11:53:57;;;;;;;0.70;0.60;;;;;;;;;;5071848;28;20446;-74
2022/02/16 11:56:24;;;;;;;0.70;0.70;;;;;;;;;;5082209;28;21203;-73
2022/02/16 11:59:06;;;;;;;0.70;0.70;;;;;;;;;;5078841;28;20482;-75
2022/02/16 12:01:33;;;;;;;0.70;0.60;;;;;;;;;;5076259;28;20441;-76
2022/02/16 12:04:00;;;;;;;0.70;0.60;;;;;;;;;;5073163;28;20440;-77
2022/02/16 12:06:36;;;;;;;0.70;0.70;;;;;;;;;;5056480;28;20447;-76
2022/02/16 12:09:05;;;;;;;0.70;0.60;;;;;;;;;;5071242;28;21009;-74
2022/02/16 12:11:38;;;;;;;0.70;0.70;;;;;;;;;;5057465;28;20446;-76
2022/02/16 12:14:11;;;;;;;0.70;0.60;;;;;;;;;;5056170;28;20534;-75
2022/02/16 12:16:42;;;;;;;0.70;0.60;;;;;;;;;;5055436;28;20542;-76
2022/02/16 12:19:11;;;;;;;0.70;0.60;;;;;;;;;;5062594;28;20452;-76
2022/02/16 12:21:39;;;;;;;0.70;0.70;;;;;;;;;;5047626;28;20474;-75
2022/02/16 12:24:09;;;;;;;0.70;0.60;;;;;;;;;;5065080;28;20451;-76
2022/02/16 12:26:39;;;;;;;0.70;0.70;;;;;;;;;;5064445;28;20459;-72
2022/02/16 12:29:07;;;;;;;0.70;0.70;;;;;;;;;;5065793;28;20467;-75
2022/02/16 12:31:36;;;;;;;0.70;0.60;;;;;;;;;;5063731;28;20811;-75
2022/02/16 12:34:05;;;;;;;0.70;0.67;;;;;;;;;;5063407;28;21035;-76
2022/02/16 12:36:33;;;;;;;0.70;0.60;;;;;;;;;;5064374;28;20853;-77
2022/02/16 12:39:01;;;;;;;0.70;0.60;;;;;;;;;;5062743;28;20474;-75
2022/02/16 12:41:30;;;;;;;0.70;0.70;;;;;;;;;;5063700;28;20529;-75
2022/02/16 12:43:59;;;;;;;0.80;0.80;;;;;;;;;;5079456;28;20446;-76
2022/02/16 12:46:28;;;;;;;0.70;0.70;;;;;;;;;;5064948;28;20438;-78
2022/02/16 12:48:54;;;;;;;0.70;0.60;;;;;;;;;;5063151;28;20552;-76
2022/02/16 12:51:22;;;;;;;0.77;0.77;;;;;;;;;;5069330;28;20489;-76
2022/02/16 12:53:50;;;;;;;0.70;0.60;;;;;;;;;;5057430;28;20440;-77
2022/02/16 12:56:17;;;;;;;0.70;0.70;;;;;;;;;;5074262;28;20443;-77
2022/02/16 12:58:46;;;;;;;0.70;0.70;;;;;;;;;;5074940;28;20418;-75
2022/02/16 13:01:13;;;;;;;0.80;0.80;;;;;;;;;;5074727;28;20495;-77
2022/02/16 13:03:41;;;;;;;0.70;0.63;;;;;;;;;;5073855;28;20523;-78
2022/02/16 13:06:10;;;;;;;0.70;0.70;;;;;;;;;;5057678;28;20450;-75
2022/02/16 13:08:38;;;;;;;2.70;2.20;;;;;;;;;;5075076;28;20477;-76
2022/02/16 13:11:05;;;;;;;0.70;0.60;;;;;;;;;;5075553;28;20778;-76
2022/02/16 13:13:35;;;;;;;0.70;0.70;;;;;;;;;;5062726;28;21009;-76
2022/02/16 13:16:05;;;;;;;0.70;0.60;;;;;;;;;;5056777;28;20437;-76
2022/02/16 13:18:34;;;;;;;0.70;0.60;;;;;;;;;;5057399;28;20954;-76
2022/02/16 13:21:13;;;;;;;1.27;1.17;;;;;;;;;;5055026;28;20408;-76
2022/02/16 13:23:40;;;;;;;0.70;0.60;;;;;;;;;;5053262;28;20790;-77
2022/02/16 13:26:08;;;;;;;0.70;0.60;;;;;;;;;;5056081;28;20455;-76
2022/02/16 13:28:35;;;;;;;0.70;0.60;;;;;;;;;;5074953;28;20439;-78
2022/02/16 13:31:14;;;;;;;0.70;0.70;;;;;;;;;;5074520;28;20474;-78
2022/02/16 13:33:42;;;;;;;0.70;0.60;;;;;;;;;;5073524;28;20532;-76
2022/02/16 13:36:14;;;;;;;0.70;0.60;;;;;;;;;;5074852;28;20426;-76
2022/02/16 13:38:42;;;;;;;0.70;0.70;;;;;;;;;;5073565;28;20438;-77
2022/02/16 13:41:15;;;;;;;0.70;0.60;;;;;;;;;;5072875;28;20926;-75
2022/02/16 13:43:53;;;;;;;0.70;0.70;;;;;;;;;;5059162;28;20457;-75
2022/02/16 13:46:26;;;;;;;0.70;0.60;;;;;;;;;;5072887;28;20414;-78
2022/02/16 13:49:06;;;;;;;0.70;0.60;;;;;;;;;;5073418;28;20440;-76
2022/02/16 13:51:33;;;;;;;0.70;0.70;;;;;;;;;;5064198;28;20501;-77
2022/02/16 13:54:00;;;;;;;0.70;0.70;;;;;;;;;;5065107;28;20888;-77
2022/02/16 13:56:27;;;;;;;0.67;0.60;;;;;;;;;;5053584;28;20502;-77
2022/02/16 13:59:03;;;;;;;0.70;0.60;;;;;;;;;;5053507;28;20471;-77
2022/02/16 14:01:31;;;;;;;0.70;0.70;;;;;;;;;;5053926;28;20407;-77
2022/02/16 14:04:05;;;;;;;0.70;0.70;;;;;;;;;;5084052;28;20891;-75
2022/02/16 14:06:32;;;;;;;0.70;0.60;;;;;;;;;;5053064;28;20516;-77
2022/02/16 14:09:01;;;;;;;0.70;0.63;;;;;;;;;;5073820;28;20423;-78
2022/02/16 14:11:29;;;;;;;0.77;0.70;;;;;;;;;;5072565;28;20450;-77
2022/02/16 14:13:58;;;;;;;0.70;0.70;;;;;;;;;;5072540;28;20981;-76
2022/02/16 14:16:26;;;;;;;0.70;0.60;;;;;;;;;;5073817;28;20427;-77
2022/02/16 14:21:39;;;;;;;0.70;0.60;;;;;;;;;;5073549;28;20450;-77
2022/02/16 14:24:08;;;;;;;0.70;0.60;;;;;;;;;;5073496;28;20444;-76
2022/02/16 14:26:35;;;;;;;0.70;0.70;;;;;;;;;;5062763;28;20448;-77
2022/02/16 14:29:03;;;;;;;0.70;0.60;;;;;;;;;;5055056;28;20950;-77
2022/02/16 14:31:29;;;;;;;0.70;0.70;;;;;;;;;;5035525;28;20473;-77
2022/02/16 14:34:13;;;;;;;0.70;0.60;;;;;;;;;;5055594;28;20966;-77
2022/02/16 14:36:42;;;;;;;0.70;0.70;;;;;;;;;;5073721;28;20958;-76
2022/02/16 14:39:10;;;;;;;0.70;0.60;;;;;;;;;;5072035;28;20439;-75
2022/02/16 14:41:38;;;;;;;0.70;0.60;;;;;;;;;;5071002;28;20431;-77
2022/02/16 14:44:05;;;;;;;0.70;0.70;;;;;;;;;;5052323;28;20433;-77
2022/02/16 14:46:36;;;;;;;0.70;0.60;;;;;;;;;;5068685;28;20535;-76
2022/02/16 14:49:03;;;;;;;0.70;0.60;;;;;;;;;;5052782;28;20445;-76
2022/02/16 14:51:33;;;;;;;0.70;0.60;;;;;;;;;;5052757;28;20489;-76
2022/02/16 14:54:00;;;;;;;0.70;0.70;;;;;;;;;;5068943;28;20441;-76
2022/02/16 14:56:27;;;;;;;0.70;0.60;;;;;;;;;;5052242;28;20431;-76
2022/02/16 14:58:54;;;;;;;0.70;0.60;;;;;;;;;;5044441;28;20443;-76
2022/02/16 15:01:21;;;;;;;0.70;0.60;;;;;;;;;;5072052;28;20510;-76
2022/02/16 15:03:50;;;;;;;0.70;0.60;;;;;;;;;;5073672;28;20495;-75